Terminal Aerodrome Forecast
Issued by NWS Austin/San Antonio, TX

Current Version | Previous Version | Text Only | Print | Product List | Glossary On
Versions: 1 2 3 4 5 6 7 8 9 10 11 12 13
762
FTUS44 KEWX 011739
TAFAUS
TAF
KAUS 011739Z 0118/0224 16008KT P6SM SCT050
     FM020200 16005KT P6SM FEW250
     FM021100 19002KT P6SM SCT020
      TEMPO 0212/0214 BKN020
     FM021700 17010KT P6SM SCT040=

USA.gov is the U.S. government's official web portal to all federal, state and local government web resources and services.